sensor_id;sensor_type;location;lat;lon;timestamp;temperature;humidity
50162;DHT22;36061;48.116;11.612;2024-03-08T00:00:49;1.80;99.90
50162;DHT22;36061;48.116;11.612;2024-03-08T00:03:17;1.90;99.90
50162;DHT22;36061;48.116;11.612;2024-03-08T00:05:45;1.90;99.90
50162;DHT22;36061;48.116;11.612;2024-03-08T00:08:14;1.80;99.90
50162;DHT22;36061;48.116;11.612;2024-03-08T00:10:41;1.80;99.90
50162;DHT22;36061;48.116;11.612;2024-03-08T00:13:09;1.80;99.90
50162;DHT22;36061;48.116;11.612;2024-03-08T00:15:36;1.80;99.90
50162;DHT22;36061;48.116;11.612;2024-03-08T00:18:04;1.80;99.90
50162;DHT22;36061;48.116;11.612;2024-03-08T00:20:31;1.80;99.90
50162;DHT22;36061;48.116;11.612;2024-03-08T00:22:59;1.80;99.90
50162;DHT22;36061;48.116;11.612;2024-03-08T00:25:28;1.70;99.90
50162;DHT22;36061;48.116;11.612;2024-03-08T00:27:55;1.80;99.90
50162;DHT22;36061;48.116;11.612;2024-03-08T00:30:23;1.70;99.90
50162;DHT22;36061;48.116;11.612;2024-03-08T00:32:51;1.80;99.90
50162;DHT22;36061;48.116;11.612;2024-03-08T00:35:18;1.80;99.90
50162;DHT22;36061;48.116;11.612;2024-03-08T00:37:46;1.80;99.90
50162;DHT22;36061;48.116;11.612;2024-03-08T00:40:14;1.80;99.90
50162;DHT22;36061;48.116;11.612;2024-03-08T00:42:43;1.80;99.90
50162;DHT22;36061;48.116;11.612;2024-03-08T00:45:11;1.70;99.90
50162;DHT22;36061;48.116;11.612;2024-03-08T00:47:38;1.70;99.90
50162;DHT22;36061;48.116;11.612;2024-03-08T00:50:08;1.70;99.90
50162;DHT22;36061;48.116;11.612;2024-03-08T00:52:36;1.60;99.90
50162;DHT22;36061;48.116;11.612;2024-03-08T00:55:04;1.60;99.90
50162;DHT22;36061;48.116;11.612;2024-03-08T00:57:32;1.50;99.90
50162;DHT22;36061;48.116;11.612;2024-03-08T01:00:03;1.50;99.90
50162;DHT22;36061;48.116;11.612;2024-03-08T01:02:31;1.50;99.90
50162;DHT22;36061;48.116;11.612;2024-03-08T01:05:00;1.60;99.90
50162;DHT22;36061;48.116;11.612;2024-03-08T01:07:28;1.60;99.90
50162;DHT22;36061;48.116;11.612;2024-03-08T01:09:56;1.60;99.90
50162;DHT22;36061;48.116;11.612;2024-03-08T01:12:24;1.50;99.90
50162;DHT22;36061;48.116;11.612;2024-03-08T01:14:52;1.60;99.90
50162;DHT22;36061;48.116;11.612;2024-03-08T01:17:21;1.60;99.90
50162;DHT22;36061;48.116;11.612;2024-03-08T01:19:48;1.60;99.90
50162;DHT22;36061;48.116;11.612;2024-03-08T01:22:16;1.60;99.90
50162;DHT22;36061;48.116;11.612;2024-03-08T01:24:43;1.50;99.90
50162;DHT22;36061;48.116;11.612;2024-03-08T01:27:11;1.60;99.90
50162;DHT22;36061;48.116;11.612;2024-03-08T01:29:39;1.50;99.90
50162;DHT22;36061;48.116;11.612;2024-03-08T01:32:06;1.50;99.90
50162;DHT22;36061;48.116;11.612;2024-03-08T01:34:35;1.40;99.90
50162;DHT22;36061;48.116;11.612;2024-03-08T01:37:03;1.40;99.90
50162;DHT22;36061;48.116;11.612;2024-03-08T01:39:30;1.40;99.90
50162;DHT22;36061;48.116;11.612;2024-03-08T01:41:59;1.40;99.90
50162;DHT22;36061;48.116;11.612;2024-03-08T01:44:26;1.40;99.90
50162;DHT22;36061;48.116;11.612;2024-03-08T01:46:54;1.40;99.90
50162;DHT22;36061;48.116;11.612;2024-03-08T01:49:22;1.40;99.90
50162;DHT22;36061;48.116;11.612;2024-03-08T01:51:52;1.40;99.90
50162;DHT22;36061;48.116;11.612;2024-03-08T01:54:22;1.40;99.90
50162;DHT22;36061;48.116;11.612;2024-03-08T01:56:50;1.30;99.90
50162;DHT22;36061;48.116;11.612;2024-03-08T01:59:19;1.30;99.90
50162;DHT22;36061;48.116;11.612;2024-03-08T02:01:46;1.30;99.90
50162;DHT22;36061;48.116;11.612;2024-03-08T02:04:14;1.30;99.90
50162;DHT22;36061;48.116;11.612;2024-03-08T02:06:42;1.30;99.90
50162;DHT22;36061;48.116;11.612;2024-03-08T02:09:12;1.30;99.90
50162;DHT22;36061;48.116;11.612;2024-03-08T02:11:40;1.30;99.90
50162;DHT22;36061;48.116;11.612;2024-03-08T02:14:09;1.30;99.90
50162;DHT22;36061;48.116;11.612;2024-03-08T02:16:37;1.30;99.90
50162;DHT22;36061;48.116;11.612;2024-03-08T02:19:05;1.30;99.90
50162;DHT22;36061;48.116;11.612;2024-03-08T02:21:37;1.30;99.90
50162;DHT22;36061;48.116;11.612;2024-03-08T02:24:05;1.30;99.90
50162;DHT22;36061;48.116;11.612;2024-03-08T02:26:33;1.30;99.90
50162;DHT22;36061;48.116;11.612;2024-03-08T02:29:01;1.30;99.90
50162;DHT22;36061;48.116;11.612;2024-03-08T02:31:29;1.20;99.90
50162;DHT22;36061;48.116;11.612;2024-03-08T02:33:57;1.20;99.90
50162;DHT22;36061;48.116;11.612;2024-03-08T02:36:25;1.20;99.90
50162;DHT22;36061;48.116;11.612;2024-03-08T02:38:54;1.20;99.90
50162;DHT22;36061;48.116;11.612;2024-03-08T02:41:22;1.10;99.90
50162;DHT22;36061;48.116;11.612;2024-03-08T02:43:49;1.10;99.90
50162;DHT22;36061;48.116;11.612;2024-03-08T02:46:17;1.10;99.90
50162;DHT22;36061;48.116;11.612;2024-03-08T02:48:44;1.10;99.90
50162;DHT22;36061;48.116;11.612;2024-03-08T02:51:13;1.00;99.90
50162;DHT22;36061;48.116;11.612;2024-03-08T02:53:42;1.00;99.90
50162;DHT22;36061;48.116;11.612;2024-03-08T02:56:11;1.00;99.90
50162;DHT22;36061;48.116;11.612;2024-03-08T02:58:42;1.00;99.90
50162;DHT22;36061;48.116;11.612;2024-03-08T03:01:14;1.00;99.90
50162;DHT22;36061;48.116;11.612;2024-03-08T03:03:42;1.00;99.90
50162;DHT22;36061;48.116;11.612;2024-03-08T03:06:09;1.00;99.90
50162;DHT22;36061;48.116;11.612;2024-03-08T03:08:37;1.00;99.90
50162;DHT22;36061;48.116;11.612;2024-03-08T03:11:12;1.00;99.90
50162;DHT22;36061;48.116;11.612;2024-03-08T03:13:39;1.00;99.90
50162;DHT22;36061;48.116;11.612;2024-03-08T03:16:08;0.90;99.90
50162;DHT22;36061;48.116;11.612;2024-03-08T03:18:36;0.90;99.90
50162;DHT22;36061;48.116;11.612;2024-03-08T03:21:04;0.90;99.90
50162;DHT22;36061;48.116;11.612;2024-03-08T03:23:33;1.00;99.90
50162;DHT22;36061;48.116;11.612;2024-03-08T03:26:03;1.00;99.90
50162;DHT22;36061;48.116;11.612;2024-03-08T03:28:34;0.90;99.90
50162;DHT22;36061;48.116;11.612;2024-03-08T03:31:06;0.80;99.90
50162;DHT22;36061;48.116;11.612;2024-03-08T03:33:33;0.80;99.90
50162;DHT22;36061;48.116;11.612;2024-03-08T03:36:03;0.80;99.90
50162;DHT22;36061;48.116;11.612;2024-03-08T03:38:31;0.70;99.90
50162;DHT22;36061;48.116;11.612;2024-03-08T03:41:00;0.70;99.90
50162;DHT22;36061;48.116;11.612;2024-03-08T03:43:37;0.70;99.90
50162;DHT22;36061;48.116;11.612;2024-03-08T03:46:06;0.70;99.90
50162;DHT22;36061;48.116;11.612;2024-03-08T03:48:36;0.70;99.90
50162;DHT22;36061;48.116;11.612;2024-03-08T03:51:04;0.70;99.90
50162;DHT22;36061;48.116;11.612;2024-03-08T03:53:31;0.60;99.90
50162;DHT22;36061;48.116;11.612;2024-03-08T03:55:59;0.70;99.90
50162;DHT22;36061;48.116;11.612;2024-03-08T03:58:26;0.70;99.90
50162;DHT22;36061;48.116;11.612;2024-03-08T04:00:55;0.70;99.90
50162;DHT22;36061;48.116;11.612;2024-03-08T04:03:23;0.70;99.90
50162;DHT22;36061;48.116;11.612;2024-03-08T04:05:50;0.70;99.90
50162;DHT22;36061;48.116;11.612;2024-03-08T04:08:18;0.60;99.90
50162;DHT22;36061;48.116;11.612;2024-03-08T04:10:45;0.60;99.90
50162;DHT22;36061;48.116;11.612;2024-03-08T04:13:13;0.60;99.90
50162;DHT22;36061;48.116;11.612;2024-03-08T04:15:41;0.60;99.90
50162;DHT22;36061;48.116;11.612;2024-03-08T04:18:12;0.60;99.90
50162;DHT22;36061;48.116;11.612;2024-03-08T04:20:39;0.60;99.90
50162;DHT22;36061;48.116;11.612;2024-03-08T04:23:07;0.50;99.90
50162;DHT22;36061;48.116;11.612;2024-03-08T04:25:34;0.60;99.90
50162;DHT22;36061;48.116;11.612;2024-03-08T04:28:02;0.50;99.90
50162;DHT22;36061;48.116;11.612;2024-03-08T04:30:30;0.50;99.90
50162;DHT22;36061;48.116;11.612;2024-03-08T04:32:57;0.50;99.90
50162;DHT22;36061;48.116;11.612;2024-03-08T04:35:27;0.50;99.90
50162;DHT22;36061;48.116;11.612;2024-03-08T04:37:54;0.40;99.90
50162;DHT22;36061;48.116;11.612;2024-03-08T04:40:23;0.40;99.90
50162;DHT22;36061;48.116;11.612;2024-03-08T04:42:51;0.50;99.90
50162;DHT22;36061;48.116;11.612;2024-03-08T04:45:19;0.50;99.90
50162;DHT22;36061;48.116;11.612;2024-03-08T04:47:47;0.50;99.90
50162;DHT22;36061;48.116;11.612;2024-03-08T04:50:15;0.50;99.90
50162;DHT22;36061;48.116;11.612;2024-03-08T04:52:44;0.50;99.90
50162;DHT22;36061;48.116;11.612;2024-03-08T04:55:12;0.50;99.90
50162;DHT22;36061;48.116;11.612;2024-03-08T04:57:39;0.50;99.90
50162;DHT22;36061;48.116;11.612;2024-03-08T05:00:09;0.50;99.90
50162;DHT22;36061;48.116;11.612;2024-03-08T05:02:38;0.50;99.90
50162;DHT22;36061;48.116;11.612;2024-03-08T05:05:06;0.50;99.90
50162;DHT22;36061;48.116;11.612;2024-03-08T05:07:33;0.50;99.90
50162;DHT22;36061;48.116;11.612;2024-03-08T05:10:03;0.50;99.90
50162;DHT22;36061;48.116;11.612;2024-03-08T05:12:30;0.50;99.90
50162;DHT22;36061;48.116;11.612;2024-03-08T05:14:58;0.60;99.90
50162;DHT22;36061;48.116;11.612;2024-03-08T05:17:26;0.50;99.90
50162;DHT22;36061;48.116;11.612;2024-03-08T05:19:54;0.60;99.90
50162;DHT22;36061;48.116;11.612;2024-03-08T05:22:21;0.60;99.90
50162;DHT22;36061;48.116;11.612;2024-03-08T05:24:49;0.60;99.90
50162;DHT22;36061;48.116;11.612;2024-03-08T05:27:18;0.60;99.90
50162;DHT22;36061;48.116;11.612;2024-03-08T05:29:45;0.60;99.90
50162;DHT22;36061;48.116;11.612;2024-03-08T05:32:13;0.60;99.90
50162;DHT22;36061;48.116;11.612;2024-03-08T05:34:40;0.60;99.90
50162;DHT22;36061;48.116;11.612;2024-03-08T05:37:08;0.60;99.90
50162;DHT22;36061;48.116;11.612;2024-03-08T05:39:37;0.60;99.90
50162;DHT22;36061;48.116;11.612;2024-03-08T05:42:05;0.60;99.90
50162;DHT22;36061;48.116;11.612;2024-03-08T05:44:36;0.60;99.90
50162;DHT22;36061;48.116;11.612;2024-03-08T05:47:03;0.60;99.90
50162;DHT22;36061;48.116;11.612;2024-03-08T05:49:33;0.60;99.90
50162;DHT22;36061;48.116;11.612;2024-03-08T05:52:00;0.60;99.90
50162;DHT22;36061;48.116;11.612;2024-03-08T05:54:28;0.70;99.90
50162;DHT22;36061;48.116;11.612;2024-03-08T05:56:55;0.70;99.90
50162;DHT22;36061;48.116;11.612;2024-03-08T05:59:23;0.80;99.90
50162;DHT22;36061;48.116;11.612;2024-03-08T06:01:52;0.70;99.90
50162;DHT22;36061;48.116;11.612;2024-03-08T06:04:20;0.80;99.90
50162;DHT22;36061;48.116;11.612;2024-03-08T06:06:47;0.80;99.90
50162;DHT22;36061;48.116;11.612;2024-03-08T06:09:17;0.90;99.90
50162;DHT22;36061;48.116;11.612;2024-03-08T06:11:49;0.90;99.90
50162;DHT22;36061;48.116;11.612;2024-03-08T06:14:16;0.90;99.90
50162;DHT22;36061;48.116;11.612;2024-03-08T06:16:44;0.90;99.90
50162;DHT22;36061;48.116;11.612;2024-03-08T06:19:14;0.90;99.90
50162;DHT22;36061;48.116;11.612;2024-03-08T06:21:41;1.00;99.90
50162;DHT22;36061;48.116;11.612;2024-03-08T06:24:09;1.00;99.90
50162;DHT22;36061;48.116;11.612;2024-03-08T06:26:36;1.00;99.90
50162;DHT22;36061;48.116;11.612;2024-03-08T06:29:04;1.00;99.90
50162;DHT22;36061;48.116;11.612;2024-03-08T06:31:33;1.00;99.90
50162;DHT22;36061;48.116;11.612;2024-03-08T06:34:00;1.00;99.90
50162;DHT22;36061;48.116;11.612;2024-03-08T06:36:29;1.10;99.90
50162;DHT22;36061;48.116;11.612;2024-03-08T06:38:57;1.10;99.90
50162;DHT22;36061;48.116;11.612;2024-03-08T06:41:24;1.10;99.90
50162;DHT22;36061;48.116;11.612;2024-03-08T06:43:53;1.10;99.90
50162;DHT22;36061;48.116;11.612;2024-03-08T06:46:23;1.10;99.90
50162;DHT22;36061;48.116;11.612;2024-03-08T06:48:51;1.20;99.90
50162;DHT22;36061;48.116;11.612;2024-03-08T06:51:19;1.20;99.90
50162;DHT22;36061;48.116;11.612;2024-03-08T06:53:48;1.30;99.90
50162;DHT22;36061;48.116;11.612;2024-03-08T06:56:16;1.30;99.90
50162;DHT22;36061;48.116;11.612;2024-03-08T06:58:44;1.60;99.90
50162;DHT22;36061;48.116;11.612;2024-03-08T07:01:11;2.40;99.90
50162;DHT22;36061;48.116;11.612;2024-03-08T07:03:42;3.20;99.90
50162;DHT22;36061;48.116;11.612;2024-03-08T07:06:10;4.00;99.90
50162;DHT22;36061;48.116;11.612;2024-03-08T07:08:38;4.40;99.90
50162;DHT22;36061;48.116;11.612;2024-03-08T07:11:07;4.70;99.90
50162;DHT22;36061;48.116;11.612;2024-03-08T07:13:34;4.80;99.90
50162;DHT22;36061;48.116;11.612;2024-03-08T07:16:02;4.80;99.90
50162;DHT22;36061;48.116;11.612;2024-03-08T07:18:30;4.30;99.90
50162;DHT22;36061;48.116;11.612;2024-03-08T07:20:57;3.80;99.90
50162;DHT22;36061;48.116;11.612;2024-03-08T07:23:25;3.40;99.90
50162;DHT22;36061;48.116;11.612;2024-03-08T07:26:11;3.10;99.90
50162;DHT22;36061;48.116;11.612;2024-03-08T07:28:42;2.90;99.90
50162;DHT22;36061;48.116;11.612;2024-03-08T07:31:09;2.80;99.90
50162;DHT22;36061;48.116;11.612;2024-03-08T07:33:47;2.60;99.90
50162;DHT22;36061;48.116;11.612;2024-03-08T07:36:16;2.50;99.90
50162;DHT22;36061;48.116;11.612;2024-03-08T07:38:44;2.50;99.90
50162;DHT22;36061;48.116;11.612;2024-03-08T07:41:15;2.50;99.90
50162;DHT22;36061;48.116;11.612;2024-03-08T07:43:42;2.50;99.90
50162;DHT22;36061;48.116;11.612;2024-03-08T07:46:10;2.50;99.90
50162;DHT22;36061;48.116;11.612;2024-03-08T07:48:39;2.50;99.90
50162;DHT22;36061;48.116;11.612;2024-03-08T07:51:07;2.50;99.90
50162;DHT22;36061;48.116;11.612;2024-03-08T07:53:35;2.60;99.90
50162;DHT22;36061;48.116;11.612;2024-03-08T07:56:04;2.70;99.90
50162;DHT22;36061;48.116;11.612;2024-03-08T07:58:33;2.80;99.90
50162;DHT22;36061;48.116;11.612;2024-03-08T08:01:01;2.80;99.90
50162;DHT22;36061;48.116;11.612;2024-03-08T08:03:29;2.80;99.90
50162;DHT22;36061;48.116;11.612;2024-03-08T08:05:57;2.90;99.90
50162;DHT22;36061;48.116;11.612;2024-03-08T08:08:24;2.90;99.90
50162;DHT22;36061;48.116;11.612;2024-03-08T08:10:52;2.90;99.90
50162;DHT22;36061;48.116;11.612;2024-03-08T08:13:20;3.00;99.90
50162;DHT22;36061;48.116;11.612;2024-03-08T08:15:50;3.10;99.90
50162;DHT22;36061;48.116;11.612;2024-03-08T08:18:17;3.20;99.90
50162;DHT22;36061;48.116;11.612;2024-03-08T08:20:47;3.30;99.90
50162;DHT22;36061;48.116;11.612;2024-03-08T08:23:15;3.40;99.90
50162;DHT22;36061;48.116;11.612;2024-03-08T08:25:43;3.40;99.90
50162;DHT22;36061;48.116;11.612;2024-03-08T08:28:10;3.50;99.90
50162;DHT22;36061;48.116;11.612;2024-03-08T08:30:38;3.50;99.90
50162;DHT22;36061;48.116;11.612;2024-03-08T08:33:07;3.60;99.90
50162;DHT22;36061;48.116;11.612;2024-03-08T08:35:35;3.70;99.90
50162;DHT22;36061;48.116;11.612;2024-03-08T08:38:03;3.70;99.90
50162;DHT22;36061;48.116;11.612;2024-03-08T08:40:31;3.80;99.90
50162;DHT22;36061;48.116;11.612;2024-03-08T08:42:59;3.90;99.90
50162;DHT22;36061;48.116;11.612;2024-03-08T08:45:26;3.90;99.90
50162;DHT22;36061;48.116;11.612;2024-03-08T08:47:54;4.00;99.90
50162;DHT22;36061;48.116;11.612;2024-03-08T08:50:23;4.10;99.90
50162;DHT22;36061;48.116;11.612;2024-03-08T08:52:51;4.00;99.90
50162;DHT22;36061;48.116;11.612;2024-03-08T08:55:19;4.00;99.90
50162;DHT22;36061;48.116;11.612;2024-03-08T08:57:51;4.00;99.90
50162;DHT22;36061;48.116;11.612;2024-03-08T09:00:19;3.90;99.90
50162;DHT22;36061;48.116;11.612;2024-03-08T09:02:47;3.90;99.90
50162;DHT22;36061;48.116;11.612;2024-03-08T09:05:17;3.90;99.90
50162;DHT22;36061;48.116;11.612;2024-03-08T09:07:46;4.00;99.90
50162;DHT22;36061;48.116;11.612;2024-03-08T09:10:13;4.00;99.90
50162;DHT22;36061;48.116;11.612;2024-03-08T09:12:41;4.10;99.90
50162;DHT22;36061;48.116;11.612;2024-03-08T09:15:08;4.20;99.90
50162;DHT22;36061;48.116;11.612;2024-03-08T09:17:37;4.30;99.90
50162;DHT22;36061;48.116;11.612;2024-03-08T09:20:07;4.40;99.90
50162;DHT22;36061;48.116;11.612;2024-03-08T09:22:34;4.40;99.90
50162;DHT22;36061;48.116;11.612;2024-03-08T09:25:05;4.50;99.90
50162;DHT22;36061;48.116;11.612;2024-03-08T09:27:34;4.50;99.90
50162;DHT22;36061;48.116;11.612;2024-03-08T09:30:01;4.50;99.90
50162;DHT22;36061;48.116;11.612;2024-03-08T09:32:30;4.60;99.90
50162;DHT22;36061;48.116;11.612;2024-03-08T09:34:57;4.60;99.90
50162;DHT22;36061;48.116;11.612;2024-03-08T09:37:27;4.70;99.90
50162;DHT22;36061;48.116;11.612;2024-03-08T09:39:54;4.80;99.90
50162;DHT22;36061;48.116;11.612;2024-03-08T09:42:23;4.90;99.90
50162;DHT22;36061;48.116;11.612;2024-03-08T09:44:51;4.90;99.90
50162;DHT22;36061;48.116;11.612;2024-03-08T09:47:22;4.90;99.90
50162;DHT22;36061;48.116;11.612;2024-03-08T09:49:55;4.90;99.90
50162;DHT22;36061;48.116;11.612;2024-03-08T09:52:22;5.00;99.90
50162;DHT22;36061;48.116;11.612;2024-03-08T09:54:50;5.00;99.90
50162;DHT22;36061;48.116;11.612;2024-03-08T09:57:18;5.00;99.90
50162;DHT22;36061;48.116;11.612;2024-03-08T09:59:48;5.00;99.90
50162;DHT22;36061;48.116;11.612;2024-03-08T10:02:16;5.00;99.90
50162;DHT22;36061;48.116;11.612;2024-03-08T10:04:44;5.10;99.90
50162;DHT22;36061;48.116;11.612;2024-03-08T10:07:14;5.10;99.90
50162;DHT22;36061;48.116;11.612;2024-03-08T10:09:42;5.20;99.90
50162;DHT22;36061;48.116;11.612;2024-03-08T10:12:16;5.30;99.90
50162;DHT22;36061;48.116;11.612;2024-03-08T10:14:43;5.30;99.90
50162;DHT22;36061;48.116;11.612;2024-03-08T10:17:12;5.40;99.90
50162;DHT22;36061;48.116;11.612;2024-03-08T10:19:49;5.40;99.90
50162;DHT22;36061;48.116;11.612;2024-03-08T10:22:18;5.50;99.90
50162;DHT22;36061;48.116;11.612;2024-03-08T10:24:46;5.60;99.90
50162;DHT22;36061;48.116;11.612;2024-03-08T10:27:14;5.60;99.90
50162;DHT22;36061;48.116;11.612;2024-03-08T10:29:47;5.60;99.90
50162;DHT22;36061;48.116;11.612;2024-03-08T10:32:16;5.60;99.90
50162;DHT22;36061;48.116;11.612;2024-03-08T10:34:43;5.70;99.90
50162;DHT22;36061;48.116;11.612;2024-03-08T10:37:14;5.80;99.90
50162;DHT22;36061;48.116;11.612;2024-03-08T10:39:51;5.90;99.90
50162;DHT22;36061;48.116;11.612;2024-03-08T10:42:25;5.90;99.90
50162;DHT22;36061;48.116;11.612;2024-03-08T10:45:05;6.10;99.90
50162;DHT22;36061;48.116;11.612;2024-03-08T10:47:40;6.10;99.90
50162;DHT22;36061;48.116;11.612;2024-03-08T10:50:11;6.20;99.90
50162;DHT22;36061;48.116;11.612;2024-03-08T10:52:44;6.20;99.90
50162;DHT22;36061;48.116;11.612;2024-03-08T10:55:14;6.30;99.90
50162;DHT22;36061;48.116;11.612;2024-03-08T10:57:43;6.30;99.90
50162;DHT22;36061;48.116;11.612;2024-03-08T11:00:12;6.40;99.90
50162;DHT22;36061;48.116;11.612;2024-03-08T11:02:45;6.40;99.90
50162;DHT22;36061;48.116;11.612;2024-03-08T11:05:31;6.50;99.90
50162;DHT22;36061;48.116;11.612;2024-03-08T11:08:01;6.60;99.90
50162;DHT22;36061;48.116;11.612;2024-03-08T11:10:30;6.60;99.90
50162;DHT22;36061;48.116;11.612;2024-03-08T11:12:59;6.70;99.90
50162;DHT22;36061;48.116;11.612;2024-03-08T11:15:29;6.80;99.90
50162;DHT22;36061;48.116;11.612;2024-03-08T11:18:00;6.80;99.90
50162;DHT22;36061;48.116;11.612;2024-03-08T11:20:28;6.90;99.90
50162;DHT22;36061;48.116;11.612;2024-03-08T11:23:01;6.90;99.90
50162;DHT22;36061;48.116;11.612;2024-03-08T11:25:35;7.00;99.90
50162;DHT22;36061;48.116;11.612;2024-03-08T11:28:13;7.00;99.90
50162;DHT22;36061;48.116;11.612;2024-03-08T11:30:44;7.10;99.90
50162;DHT22;36061;48.116;11.612;2024-03-08T11:33:15;7.10;99.90
50162;DHT22;36061;48.116;11.612;2024-03-08T11:35:44;7.20;99.90
50162;DHT22;36061;48.116;11.612;2024-03-08T11:38:12;7.20;99.90
50162;DHT22;36061;48.116;11.612;2024-03-08T11:40:43;7.30;99.90
50162;DHT22;36061;48.116;11.612;2024-03-08T11:43:16;7.30;99.90
50162;DHT22;36061;48.116;11.612;2024-03-08T11:45:44;7.30;99.90
50162;DHT22;36061;48.116;11.612;2024-03-08T11:48:11;7.40;99.90
50162;DHT22;36061;48.116;11.612;2024-03-08T11:50:40;7.40;99.90
50162;DHT22;36061;48.116;11.612;2024-03-08T11:53:09;7.40;99.90
50162;DHT22;36061;48.116;11.612;2024-03-08T11:55:38;7.50;99.90
50162;DHT22;36061;48.116;11.612;2024-03-08T11:58:08;7.50;99.90
50162;DHT22;36061;48.116;11.612;2024-03-08T12:00:36;7.50;99.90
50162;DHT22;36061;48.116;11.612;2024-03-08T12:03:06;7.60;99.90
50162;DHT22;36061;48.116;11.612;2024-03-08T12:05:35;7.60;99.90
50162;DHT22;36061;48.116;11.612;2024-03-08T12:08:05;7.60;99.90
50162;DHT22;36061;48.116;11.612;2024-03-08T12:10:35;7.70;99.90
50162;DHT22;36061;48.116;11.612;2024-03-08T12:13:05;7.80;99.90
50162;DHT22;36061;48.116;11.612;2024-03-08T12:15:39;7.80;99.90
50162;DHT22;36061;48.116;11.612;2024-03-08T12:18:07;7.80;99.90
50162;DHT22;36061;48.116;11.612;2024-03-08T12:20:37;7.90;99.90
50162;DHT22;36061;48.116;11.612;2024-03-08T12:23:14;7.90;99.90
50162;DHT22;36061;48.116;11.612;2024-03-08T12:25:41;8.00;99.90
50162;DHT22;36061;48.116;11.612;2024-03-08T12:28:09;8.00;99.90
50162;DHT22;36061;48.116;11.612;2024-03-08T12:30:46;8.10;99.90
50162;DHT22;36061;48.116;11.612;2024-03-08T12:33:14;8.20;99.90
50162;DHT22;36061;48.116;11.612;2024-03-08T12:35:50;8.10;99.90
50162;DHT22;36061;48.116;11.612;2024-03-08T12:38:22;8.20;99.90
50162;DHT22;36061;48.116;11.612;2024-03-08T12:40:54;8.20;99.90
50162;DHT22;36061;48.116;11.612;2024-03-08T12:43:22;8.30;99.90
50162;DHT22;36061;48.116;11.612;2024-03-08T12:45:50;8.30;99.90
50162;DHT22;36061;48.116;11.612;2024-03-08T12:48:18;8.30;99.90
50162;DHT22;36061;48.116;11.612;2024-03-08T12:50:46;8.30;99.90
50162;DHT22;36061;48.116;11.612;2024-03-08T12:53:17;8.40;99.90
50162;DHT22;36061;48.116;11.612;2024-03-08T12:55:46;8.40;99.90
50162;DHT22;36061;48.116;11.612;2024-03-08T12:58:12;8.40;99.90
50162;DHT22;36061;48.116;11.612;2024-03-08T13:00:42;8.50;99.90
50162;DHT22;36061;48.116;11.612;2024-03-08T13:03:10;8.50;99.90
50162;DHT22;36061;48.116;11.612;2024-03-08T13:05:37;8.60;99.90
50162;DHT22;36061;48.116;11.612;2024-03-08T13:08:06;8.50;99.90
50162;DHT22;36061;48.116;11.612;2024-03-08T13:10:38;8.50;99.90
50162;DHT22;36061;48.116;11.612;2024-03-08T13:13:07;8.60;99.90
50162;DHT22;36061;48.116;11.612;2024-03-08T13:15:35;8.70;99.90
50162;DHT22;36061;48.116;11.612;2024-03-08T13:18:03;8.70;99.90
50162;DHT22;36061;48.116;11.612;2024-03-08T13:20:31;8.70;99.90
50162;DHT22;36061;48.116;11.612;2024-03-08T13:22:59;8.80;99.90
50162;DHT22;36061;48.116;11.612;2024-03-08T13:25:27;8.80;99.90
50162;DHT22;36061;48.116;11.612;2024-03-08T13:27:55;8.90;99.90
50162;DHT22;36061;48.116;11.612;2024-03-08T13:30:26;8.90;99.90
50162;DHT22;36061;48.116;11.612;2024-03-08T13:32:54;8.90;99.90
50162;DHT22;36061;48.116;11.612;2024-03-08T13:35:21;8.90;99.90
50162;DHT22;36061;48.116;11.612;2024-03-08T13:37:53;8.90;99.90
50162;DHT22;36061;48.116;11.612;2024-03-08T13:40:20;9.00;99.90
50162;DHT22;36061;48.116;11.612;2024-03-08T13:42:48;9.00;99.90
50162;DHT22;36061;48.116;11.612;2024-03-08T13:45:16;9.00;99.90
50162;DHT22;36061;48.116;11.612;2024-03-08T13:47:51;9.10;99.90
50162;DHT22;36061;48.116;11.612;2024-03-08T13:50:20;9.10;99.90
50162;DHT22;36061;48.116;11.612;2024-03-08T13:52:48;9.10;99.90
50162;DHT22;36061;48.116;11.612;2024-03-08T13:55:17;9.10;99.90
50162;DHT22;36061;48.116;11.612;2024-03-08T13:57:45;9.10;99.90
50162;DHT22;36061;48.116;11.612;2024-03-08T14:00:13;9.10;99.90
50162;DHT22;36061;48.116;11.612;2024-03-08T14:02:41;9.10;99.90
50162;DHT22;36061;48.116;11.612;2024-03-08T14:05:10;9.10;99.90
50162;DHT22;36061;48.116;11.612;2024-03-08T14:07:40;9.10;99.90
50162;DHT22;36061;48.116;11.612;2024-03-08T14:10:08;9.10;99.90
50162;DHT22;36061;48.116;11.612;2024-03-08T14:12:36;9.10;99.90
50162;DHT22;36061;48.116;11.612;2024-03-08T14:15:04;9.20;99.90
50162;DHT22;36061;48.116;11.612;2024-03-08T14:17:32;9.20;99.90
50162;DHT22;36061;48.116;11.612;2024-03-08T14:20:00;9.20;99.90
50162;DHT22;36061;48.116;11.612;2024-03-08T14:22:29;9.20;99.90
50162;DHT22;36061;48.116;11.612;2024-03-08T14:24:57;9.20;99.90
50162;DHT22;36061;48.116;11.612;2024-03-08T14:27:25;9.20;99.90
50162;DHT22;36061;48.116;11.612;2024-03-08T14:29:53;9.20;99.90
50162;DHT22;36061;48.116;11.612;2024-03-08T14:32:21;9.20;99.90
50162;DHT22;36061;48.116;11.612;2024-03-08T14:34:49;9.20;99.90
50162;DHT22;36061;48.116;11.612;2024-03-08T14:37:16;9.20;99.90
50162;DHT22;36061;48.116;11.612;2024-03-08T14:39:50;9.20;99.90
50162;DHT22;36061;48.116;11.612;2024-03-08T14:42:18;9.20;99.90
50162;DHT22;36061;48.116;11.612;2024-03-08T14:44:48;9.20;99.90
50162;DHT22;36061;48.116;11.612;2024-03-08T14:47:17;9.20;99.90
50162;DHT22;36061;48.116;11.612;2024-03-08T14:49:44;9.20;99.90
50162;DHT22;36061;48.116;11.612;2024-03-08T14:52:15;9.20;99.90
50162;DHT22;36061;48.116;11.612;2024-03-08T14:54:55;9.10;99.90
50162;DHT22;36061;48.116;11.612;2024-03-08T14:57:24;9.20;99.90
50162;DHT22;36061;48.116;11.612;2024-03-08T14:59:52;9.10;99.90
50162;DHT22;36061;48.116;11.612;2024-03-08T15:02:19;9.10;99.90
50162;DHT22;36061;48.116;11.612;2024-03-08T15:04:48;9.00;99.90
50162;DHT22;36061;48.116;11.612;2024-03-08T15:07:23;9.00;99.90
50162;DHT22;36061;48.116;11.612;2024-03-08T15:09:51;8.90;99.90
50162;DHT22;36061;48.116;11.612;2024-03-08T15:12:23;8.90;99.90
50162;DHT22;36061;48.116;11.612;2024-03-08T15:14:52;8.90;99.90
50162;DHT22;36061;48.116;11.612;2024-03-08T15:17:21;8.90;99.90
50162;DHT22;36061;48.116;11.612;2024-03-08T15:19:48;8.90;99.90
50162;DHT22;36061;48.116;11.612;2024-03-08T15:22:17;8.90;99.90
50162;DHT22;36061;48.116;11.612;2024-03-08T15:24:44;8.90;99.90
50162;DHT22;36061;48.116;11.612;2024-03-08T15:27:12;8.90;99.90
50162;DHT22;36061;48.116;11.612;2024-03-08T15:29:42;8.80;99.90
50162;DHT22;36061;48.116;11.612;2024-03-08T15:32:13;8.70;99.90
50162;DHT22;36061;48.116;11.612;2024-03-08T15:34:46;8.80;99.90
50162;DHT22;36061;48.116;11.612;2024-03-08T15:37:13;8.80;99.90
50162;DHT22;36061;48.116;11.612;2024-03-08T15:39:43;8.80;99.90